Time;durP1;ratioP1;P1;durP2;ratioP2;P2;SDS_P1;SDS_P2;PMS_P1;PMS_P2;Temp;Humidity;BMP_temperature;BMP_pressure;BME280_temperature;BME280_humidity;BME280_pressure;Samples;Min_cycle;Max_cycle;Signal;HPM_P1;HPM_P2
2021/10/12 00:01:23;;;;;;;18.33;6.68;;;;;;;;;;5111984;28;20498;-60
2021/10/12 00:03:48;;;;;;;11.77;6.35;;;;;;;;;;5109145;28;20043;-60
2021/10/12 00:06:14;;;;;;;6.82;5.30;;;;;;;;;;5107566;28;20032;-60
2021/10/12 00:08:40;;;;;;;9.50;5.25;;;;;;;;;;5108027;28;20042;-59
2021/10/12 00:11:05;;;;;;;7.55;5.38;;;;;;;;;;5103967;28;20427;-60
2021/10/12 00:13:32;;;;;;;7.85;6.38;;;;;;;;;;5109479;28;20544;-60
2021/10/12 00:15:57;;;;;;;11.98;6.93;;;;;;;;;;5100460;28;20032;-60
2021/10/12 00:18:22;;;;;;;6.80;5.75;;;;;;;;;;5106132;28;20107;-60
2021/10/12 00:20:48;;;;;;;10.68;6.60;;;;;;;;;;5110408;28;20049;-60
2021/10/12 00:23:13;;;;;;;6.90;5.80;;;;;;;;;;5112203;28;20388;-60
2021/10/12 00:25:39;;;;;;;5.75;5.15;;;;;;;;;;5116723;28;20116;-60
2021/10/12 00:28:04;;;;;;;8.35;5.57;;;;;;;;;;5106326;28;20031;-60
2021/10/12 00:30:30;;;;;;;9.18;6.68;;;;;;;;;;5105595;28;20059;-60
2021/10/12 00:32:55;;;;;;;7.93;6.35;;;;;;;;;;5095834;28;20035;-60
2021/10/12 00:35:21;;;;;;;6.30;5.22;;;;;;;;;;5106594;28;20385;-60
2021/10/12 00:37:46;;;;;;;6.10;5.50;;;;;;;;;;5110341;28;20040;-60
2021/10/12 00:40:12;;;;;;;9.13;6.57;;;;;;;;;;5105559;28;20116;-60
2021/10/12 00:42:37;;;;;;;8.07;6.22;;;;;;;;;;5105820;28;20028;-60
2021/10/12 00:45:05;;;;;;;10.30;6.03;;;;;;;;;;5108372;28;20036;-60
2021/10/12 00:47:30;;;;;;;6.00;4.97;;;;;;;;;;5104578;28;20370;-60
2021/10/12 00:49:56;;;;;;;7.13;5.18;;;;;;;;;;5107491;28;20027;-60
2021/10/12 00:52:21;;;;;;;7.70;6.47;;;;;;;;;;5104490;28;20107;-60
2021/10/12 00:54:47;;;;;;;6.30;5.28;;;;;;;;;;5109993;28;20116;-60
2021/10/12 00:57:13;;;;;;;10.18;6.90;;;;;;;;;;5105393;28;20039;-60
2021/10/12 00:59:40;;;;;;;9.60;6.03;;;;;;;;;;5111406;28;20086;-59
2021/10/12 01:02:06;;;;;;;6.43;5.07;;;;;;;;;;5106565;27;20031;-59
2021/10/12 01:04:32;;;;;;;5.78;5.10;;;;;;;;;;5098241;27;20041;-60
2021/10/12 01:06:57;;;;;;;5.45;4.85;;;;;;;;;;5112333;27;20626;-60
2021/10/12 01:09:22;;;;;;;8.27;6.70;;;;;;;;;;5112656;27;20036;-61
2021/10/12 01:11:48;;;;;;;7.28;5.20;;;;;;;;;;5111151;27;20038;-59
2021/10/12 01:14:13;;;;;;;9.50;4.78;;;;;;;;;;5114033;27;20035;-59
2021/10/12 01:16:38;;;;;;;8.15;5.25;;;;;;;;;;5110017;27;20380;-59
2021/10/12 01:19:08;;;;;;;8.05;5.47;;;;;;;;;;5118304;27;20039;-59
2021/10/12 01:21:43;;;;;;;9.07;4.88;;;;;;;;;;5096533;27;20376;-60
2021/10/12 01:24:09;;;;;;;7.32;5.38;;;;;;;;;;5110732;27;20491;-60
2021/10/12 01:26:35;;;;;;;6.15;4.88;;;;;;;;;;5111431;27;20058;-61
2021/10/12 01:29:02;;;;;;;7.05;5.63;;;;;;;;;;5113333;27;20060;-60
2021/10/12 01:31:28;;;;;;;5.15;4.63;;;;;;;;;;5111881;27;20038;-60
2021/10/12 01:33:54;;;;;;;7.78;5.13;;;;;;;;;;5117619;27;20085;-59
2021/10/12 01:36:20;;;;;;;9.50;4.00;;;;;;;;;;5113352;27;20036;-60
2021/10/12 01:38:46;;;;;;;15.95;5.95;;;;;;;;;;5111002;27;20531;-60
2021/10/12 01:41:12;;;;;;;9.35;6.18;;;;;;;;;;5096038;27;20035;-60
2021/10/12 01:43:38;;;;;;;5.47;3.88;;;;;;;;;;5112962;27;20475;-61
2021/10/12 01:46:05;;;;;;;5.57;4.53;;;;;;;;;;5111012;27;20030;-61
2021/10/12 01:48:31;;;;;;;7.57;5.60;;;;;;;;;;5105326;27;20031;-61
2021/10/12 01:50:57;;;;;;;5.30;4.30;;;;;;;;;;5104018;27;20028;-60
2021/10/12 01:53:22;;;;;;;5.78;4.15;;;;;;;;;;5103902;27;20024;-60
2021/10/12 01:55:48;;;;;;;7.25;5.07;;;;;;;;;;5105397;27;20062;-60
2021/10/12 01:58:13;;;;;;;7.43;5.15;;;;;;;;;;5111735;27;20028;-60
2021/10/12 02:00:39;;;;;;;6.63;5.90;;;;;;;;;;5112704;27;20034;-60
2021/10/12 02:03:04;;;;;;;6.10;4.97;;;;;;;;;;5114009;27;20456;-60
2021/10/12 02:05:30;;;;;;;8.65;6.13;;;;;;;;;;5115781;27;20091;-60
2021/10/12 02:07:55;;;;;;;7.68;4.97;;;;;;;;;;5091642;28;20079;-60
2021/10/12 02:10:20;;;;;;;4.65;3.83;;;;;;;;;;5108387;27;20513;-60
2021/10/12 02:12:46;;;;;;;7.50;4.47;;;;;;;;;;5113849;27;20023;-60
2021/10/12 02:15:12;;;;;;;5.30;4.70;;;;;;;;;;5110694;27;20028;-60
2021/10/12 02:17:37;;;;;;;7.03;5.90;;;;;;;;;;5105873;27;20019;-60
2021/10/12 02:20:04;;;;;;;5.05;4.18;;;;;;;;;;5108549;27;20031;-60
2021/10/12 02:22:30;;;;;;;6.68;5.22;;;;;;;;;;5110427;27;20031;-60
2021/10/12 02:24:55;;;;;;;5.65;4.78;;;;;;;;;;5110546;27;20035;-60
2021/10/12 02:27:21;;;;;;;5.15;4.65;;;;;;;;;;5107478;27;20028;-60
2021/10/12 02:29:48;;;;;;;7.32;5.13;;;;;;;;;;5107338;27;20036;-60
2021/10/12 02:32:13;;;;;;;9.95;3.92;;;;;;;;;;5110312;27;20425;-60
2021/10/12 02:34:38;;;;;;;4.78;3.97;;;;;;;;;;5106862;27;20102;-60
2021/10/12 02:37:04;;;;;;;8.73;4.50;;;;;;;;;;5106314;27;20028;-60
2021/10/12 02:39:29;;;;;;;5.22;4.45;;;;;;;;;;5114616;27;20089;-60
2021/10/12 02:41:54;;;;;;;5.65;4.97;;;;;;;;;;5108958;27;20031;-60
2021/10/12 02:44:20;;;;;;;6.13;4.47;;;;;;;;;;5108472;27;20479;-60
2021/10/12 02:46:45;;;;;;;5.43;4.30;;;;;;;;;;5107832;27;20040;-60
2021/10/12 02:49:11;;;;;;;6.28;3.90;;;;;;;;;;5106973;27;20038;-60
2021/10/12 02:51:36;;;;;;;7.95;5.07;;;;;;;;;;5109267;27;20096;-60
2021/10/12 02:54:01;;;;;;;6.43;4.43;;;;;;;;;;5094143;27;20055;-60
2021/10/12 02:56:27;;;;;;;5.75;4.35;;;;;;;;;;5106270;27;20445;-60
2021/10/12 02:58:52;;;;;;;7.90;5.43;;;;;;;;;;5114935;27;20028;-60
2021/10/12 03:01:17;;;;;;;6.45;5.25;;;;;;;;;;5105301;27;20665;-60
2021/10/12 03:03:43;;;;;;;4.25;3.72;;;;;;;;;;5103091;27;20057;-60
2021/10/12 03:06:08;;;;;;;5.50;3.85;;;;;;;;;;5106225;27;20112;-60
2021/10/12 03:08:34;;;;;;;10.60;4.45;;;;;;;;;;5105305;27;20085;-60
2021/10/12 03:10:59;;;;;;;5.97;4.57;;;;;;;;;;5105521;27;20092;-60
2021/10/12 03:13:25;;;;;;;7.20;4.47;;;;;;;;;;5104668;27;20040;-60
2021/10/12 03:15:50;;;;;;;6.28;3.95;;;;;;;;;;5105235;27;20043;-61
2021/10/12 03:18:16;;;;;;;8.75;4.82;;;;;;;;;;5106484;27;20031;-61
2021/10/12 03:20:42;;;;;;;7.50;5.22;;;;;;;;;;5101638;27;20062;-61
2021/10/12 03:23:07;;;;;;;5.18;4.10;;;;;;;;;;5091683;28;20035;-61
2021/10/12 03:25:32;;;;;;;4.03;3.53;;;;;;;;;;5102183;28;20368;-63
2021/10/12 03:27:58;;;;;;;7.50;4.53;;;;;;;;;;5107488;27;20084;-60
2021/10/12 03:30:23;;;;;;;8.50;5.10;;;;;;;;;;5111049;27;20151;-62
2021/10/12 03:32:49;;;;;;;5.22;4.32;;;;;;;;;;5104215;27;20040;-64
2021/10/12 03:35:18;;;;;;;5.43;4.30;;;;;;;;;;5099130;27;20630;-66
2021/10/12 03:37:44;;;;;;;8.77;4.82;;;;;;;;;;5096436;27;20047;-66
2021/10/12 03:40:10;;;;;;;5.35;4.25;;;;;;;;;;5101568;28;20370;-66
2021/10/12 03:42:35;;;;;;;6.47;4.75;;;;;;;;;;5101904;28;20107;-67
2021/10/12 03:45:01;;;;;;;5.10;3.97;;;;;;;;;;5102889;28;20067;-67
2021/10/12 03:47:26;;;;;;;8.52;4.22;;;;;;;;;;5105250;28;20035;-68
2021/10/12 03:49:51;;;;;;;4.50;3.63;;;;;;;;;;5102179;28;20043;-67
2021/10/12 03:52:17;;;;;;;7.55;4.88;;;;;;;;;;5098763;28;20027;-67
2021/10/12 03:54:43;;;;;;;4.95;3.53;;;;;;;;;;5083656;28;20464;-68
2021/10/12 03:57:08;;;;;;;5.47;4.05;;;;;;;;;;5096945;28;20119;-67
2021/10/12 03:59:34;;;;;;;5.05;4.35;;;;;;;;;;5099479;28;20039;-68
2021/10/12 04:02:00;;;;;;;3.97;3.53;;;;;;;;;;5102822;28;20045;-68
2021/10/12 04:04:25;;;;;;;6.22;4.20;;;;;;;;;;5100480;28;20476;-67
2021/10/12 04:06:51;;;;;;;6.40;3.72;;;;;;;;;;5101118;28;20040;-67
2021/10/12 04:09:16;;;;;;;6.30;3.45;;;;;;;;;;5104031;28;20038;-67
2021/10/12 04:11:41;;;;;;;4.95;3.70;;;;;;;;;;5105105;28;20066;-66
2021/10/12 04:14:07;;;;;;;3.63;2.95;;;;;;;;;;5106645;28;20035;-67
2021/10/12 04:16:32;;;;;;;6.65;4.57;;;;;;;;;;5104812;28;20040;-66
2021/10/12 04:18:58;;;;;;;5.20;3.85;;;;;;;;;;5104690;28;20114;-66
2021/10/12 04:21:23;;;;;;;7.07;4.18;;;;;;;;;;5104135;28;20095;-69
2021/10/12 04:23:49;;;;;;;6.20;4.07;;;;;;;;;;5105532;28;20043;-67
2021/10/12 04:26:16;;;;;;;5.05;3.85;;;;;;;;;;5101732;28;20035;-67
2021/10/12 04:28:41;;;;;;;4.57;3.95;;;;;;;;;;5103974;28;20036;-67
2021/10/12 04:31:07;;;;;;;4.82;3.53;;;;;;;;;;5105031;28;20509;-67
2021/10/12 04:33:34;;;;;;;9.55;4.75;;;;;;;;;;5105081;28;20112;-67
2021/10/12 04:35:59;;;;;;;7.20;4.57;;;;;;;;;;5099040;28;20031;-66
2021/10/12 04:38:24;;;;;;;6.47;4.63;;;;;;;;;;5099518;27;20039;-68
2021/10/12 04:40:50;;;;;;;5.70;4.13;;;;;;;;;;5106751;27;20032;-67
2021/10/12 04:43:15;;;;;;;5.25;4.43;;;;;;;;;;5107916;27;20111;-67
2021/10/12 04:45:41;;;;;;;5.03;4.05;;;;;;;;;;5109848;27;20487;-68
2021/10/12 04:48:07;;;;;;;4.30;3.38;;;;;;;;;;5096666;27;20073;-67
2021/10/12 04:50:33;;;;;;;6.97;4.50;;;;;;;;;;5105623;27;20043;-68
2021/10/12 04:52:58;;;;;;;6.40;4.32;;;;;;;;;;5108127;27;20035;-67
2021/10/12 04:55:23;;;;;;;4.55;3.92;;;;;;;;;;5109202;27;20032;-68
2021/10/12 04:57:49;;;;;;;6.00;4.65;;;;;;;;;;5103423;27;20054;-68
2021/10/12 05:00:14;;;;;;;4.65;3.65;;;;;;;;;;5104705;27;20154;-67
2021/10/12 05:02:40;;;;;;;4.40;3.88;;;;;;;;;;5109464;27;20055;-67
2021/10/12 05:05:05;;;;;;;5.05;4.47;;;;;;;;;;5098314;27;20440;-68
2021/10/12 05:07:31;;;;;;;4.88;3.47;;;;;;;;;;5106997;27;20486;-67
2021/10/12 05:09:56;;;;;;;8.30;4.90;;;;;;;;;;5111936;27;20103;-68
2021/10/12 05:12:22;;;;;;;4.57;3.88;;;;;;;;;;5105083;27;20036;-67
2021/10/12 05:14:47;;;;;;;4.30;3.83;;;;;;;;;;5106882;27;20031;-68
2021/10/12 05:17:22;;;;;;;6.38;5.25;;;;;;;;;;5113852;27;20074;-67
2021/10/12 05:19:48;;;;;;;4.55;4.15;;;;;;;;;;5110583;27;20032;-68
2021/10/12 05:22:13;;;;;;;6.15;3.72;;;;;;;;;;5108002;27;20117;-68
2021/10/12 05:24:38;;;;;;;7.68;4.35;;;;;;;;;;5108612;27;20032;-68
2021/10/12 05:27:05;;;;;;;4.90;4.15;;;;;;;;;;5101626;27;20054;-69
2021/10/12 05:29:31;;;;;;;4.80;4.05;;;;;;;;;;5103059;27;20036;-69
2021/10/12 05:31:56;;;;;;;4.43;3.78;;;;;;;;;;5108164;27;20500;-69
2021/10/12 05:34:22;;;;;;;3.97;3.58;;;;;;;;;;5107305;27;20039;-69
2021/10/12 05:36:47;;;;;;;7.20;4.28;;;;;;;;;;5104294;27;20039;-68
2021/10/12 05:39:13;;;;;;;4.05;3.35;;;;;;;;;;5112178;27;20035;-68
2021/10/12 05:41:38;;;;;;;9.55;3.88;;;;;;;;;;5109111;27;20034;-68
2021/10/12 05:44:04;;;;;;;5.22;3.92;;;;;;;;;;5111159;27;20039;-67
2021/10/12 05:46:29;;;;;;;5.80;4.25;;;;;;;;;;5105994;27;20054;-67
2021/10/12 05:48:55;;;;;;;6.57;4.57;;;;;;;;;;5090452;27;20058;-68
2021/10/12 05:51:23;;;;;;;13.68;4.03;;;;;;;;;;5083209;27;20059;-68
2021/10/12 05:53:51;;;;;;;4.35;3.45;;;;;;;;;;5104972;27;20043;-68
2021/10/12 05:58:51;;;;;;;5.45;3.55;;;;;;;;;;5106948;27;20039;-69
2021/10/12 06:01:21;;;;;;;8.52;4.57;;;;;;;;;;5109451;27;20032;-69
2021/10/12 06:03:47;;;;;;;5.05;3.83;;;;;;;;;;5099698;27;20040;-69
2021/10/12 06:06:12;;;;;;;5.13;4.28;;;;;;;;;;5088232;27;20365;-69
2021/10/12 06:08:40;;;;;;;4.85;4.15;;;;;;;;;;5110546;27;20035;-69
2021/10/12 06:11:07;;;;;;;3.80;3.13;;;;;;;;;;5107894;27;20041;-69
2021/10/12 06:13:33;;;;;;;5.10;4.10;;;;;;;;;;5091252;27;20369;-69
2021/10/12 06:15:59;;;;;;;5.47;4.00;;;;;;;;;;5106218;27;20039;-69
2021/10/12 06:18:26;;;;;;;5.72;4.07;;;;;;;;;;5102057;27;20089;-69
2021/10/12 06:20:52;;;;;;;8.18;4.38;;;;;;;;;;5105718;27;20050;-69
2021/10/12 06:23:19;;;;;;;5.28;3.92;;;;;;;;;;5103605;27;20089;-69
2021/10/12 06:25:45;;;;;;;4.25;3.50;;;;;;;;;;5106392;27;20063;-69
2021/10/12 06:28:13;;;;;;;4.82;3.83;;;;;;;;;;5107704;27;20028;-69
2021/10/12 06:30:38;;;;;;;3.92;3.38;;;;;;;;;;5106741;27;20069;-69
2021/10/12 06:33:04;;;;;;;10.15;5.03;;;;;;;;;;5107439;27;20472;-69
2021/10/12 06:35:30;;;;;;;5.22;3.53;;;;;;;;;;5102609;27;20463;-69
2021/10/12 06:38:00;;;;;;;11.60;4.50;;;;;;;;;;5091760;27;20351;-69
2021/10/12 06:40:27;;;;;;;4.07;3.22;;;;;;;;;;5112361;27;20027;-68
2021/10/12 06:42:53;;;;;;;11.20;3.67;;;;;;;;;;5101158;27;20404;-68
2021/10/12 06:45:19;;;;;;;5.88;4.20;;;;;;;;;;5099753;27;20043;-68
2021/10/12 06:47:45;;;;;;;5.63;4.32;;;;;;;;;;5104308;27;20038;-66
2021/10/12 06:50:11;;;;;;;4.47;3.55;;;;;;;;;;5109812;27;20051;-66
2021/10/12 06:52:36;;;;;;;4.20;3.80;;;;;;;;;;5104011;27;20043;-66
2021/10/12 06:55:03;;;;;;;3.72;2.97;;;;;;;;;;5106128;27;20375;-68
2021/10/12 06:57:29;;;;;;;4.45;3.75;;;;;;;;;;5105622;27;20436;-68
2021/10/12 06:59:54;;;;;;;5.13;4.10;;;;;;;;;;5102087;27;20047;-67
2021/10/12 07:02:19;;;;;;;6.32;4.28;;;;;;;;;;5088093;27;20049;-67
2021/10/12 07:04:45;;;;;;;6.28;3.47;;;;;;;;;;5105175;27;20031;-68
2021/10/12 07:07:10;;;;;;;5.60;3.83;;;;;;;;;;5104884;27;20696;-67
2021/10/12 07:09:36;;;;;;;4.50;3.15;;;;;;;;;;5105989;27;20035;-67
2021/10/12 07:12:01;;;;;;;5.00;4.03;;;;;;;;;;5101994;27;20036;-68
2021/10/12 07:14:27;;;;;;;3.95;3.53;;;;;;;;;;5104070;27;20123;-67
2021/10/12 07:16:53;;;;;;;11.48;4.10;;;;;;;;;;5104568;27;20038;-67
2021/10/12 07:19:18;;;;;;;3.65;3.13;;;;;;;;;;5105063;27;20031;-68
2021/10/12 07:21:45;;;;;;;5.45;3.78;;;;;;;;;;5101640;28;20032;-69
2021/10/12 07:24:11;;;;;;;3.53;2.30;;;;;;;;;;5102326;27;20032;-67
2021/10/12 07:26:37;;;;;;;4.95;3.15;;;;;;;;;;5104973;27;20038;-69
2021/10/12 07:29:02;;;;;;;3.83;3.03;;;;;;;;;;5105710;28;20035;-67
2021/10/12 07:31:28;;;;;;;3.28;2.63;;;;;;;;;;5106090;27;20039;-67
2021/10/12 07:33:53;;;;;;;3.13;2.78;;;;;;;;;;5098168;27;20040;-69
2021/10/12 07:36:19;;;;;;;4.50;3.03;;;;;;;;;;5102230;27;20028;-66
2021/10/12 07:38:45;;;;;;;3.45;2.75;;;;;;;;;;5104268;27;20023;-66
2021/10/12 07:41:12;;;;;;;6.18;3.75;;;;;;;;;;5105816;27;20062;-67
2021/10/12 07:43:38;;;;;;;5.30;2.47;;;;;;;;;;5109500;27;20467;-67
2021/10/12 07:46:04;;;;;;;6.70;3.58;;;;;;;;;;5109921;28;20043;-67
2021/10/12 07:48:30;;;;;;;3.95;2.90;;;;;;;;;;5105870;27;20385;-67
2021/10/12 07:50:55;;;;;;;4.30;3.35;;;;;;;;;;5087352;28;20043;-67
2021/10/12 07:53:21;;;;;;;3.83;3.10;;;;;;;;;;5105587;28;20036;-67
2021/10/12 07:55:50;;;;;;;9.57;4.07;;;;;;;;;;5105676;28;20027;-66
2021/10/12 07:58:15;;;;;;;5.25;3.13;;;;;;;;;;5102281;28;20032;-68
2021/10/12 08:00:43;;;;;;;5.63;3.13;;;;;;;;;;5097745;28;20071;-67
2021/10/12 08:03:10;;;;;;;2.95;2.33;;;;;;;;;;5098794;28;20031;-67
2021/10/12 08:05:37;;;;;;;7.28;2.85;;;;;;;;;;5098693;28;20086;-67
2021/10/12 08:08:03;;;;;;;3.00;2.50;;;;;;;;;;5097996;28;20085;-67
2021/10/12 08:10:28;;;;;;;3.10;2.30;;;;;;;;;;5098393;28;20414;-66
2021/10/12 08:12:59;;;;;;;4.07;2.95;;;;;;;;;;5105038;27;20035;-66
2021/10/12 08:15:25;;;;;;;3.53;2.72;;;;;;;;;;5114287;27;20543;-66
2021/10/12 08:17:52;;;;;;;2.55;1.75;;;;;;;;;;5104566;27;20150;-67
2021/10/12 08:20:18;;;;;;;3.15;2.55;;;;;;;;;;5107422;27;20385;-66
2021/10/12 08:22:44;;;;;;;4.03;2.47;;;;;;;;;;5109760;27;20032;-67
2021/10/12 08:25:09;;;;;;;4.35;3.05;;;;;;;;;;5109538;27;20038;-68
2021/10/12 08:27:36;;;;;;;4.03;2.25;;;;;;;;;;5111990;27;20028;-67
2021/10/12 08:30:03;;;;;;;4.53;3.25;;;;;;;;;;5105589;27;20476;-67
2021/10/12 08:32:29;;;;;;;4.28;3.00;;;;;;;;;;5110837;27;20145;-67
2021/10/12 08:34:54;;;;;;;4.82;2.72;;;;;;;;;;5110392;27;20135;-67
2021/10/12 08:37:20;;;;;;;4.68;2.97;;;;;;;;;;5111087;27;20031;-66
2021/10/12 08:39:45;;;;;;;3.67;2.88;;;;;;;;;;5092578;27;20031;-66
2021/10/12 08:42:29;;;;;;;4.28;2.97;;;;;;;;;;5111904;27;20096;-67
2021/10/12 08:44:59;;;;;;;4.40;3.35;;;;;;;;;;5112383;27;20031;-67
2021/10/12 08:47:26;;;;;;;4.40;3.20;;;;;;;;;;5104090;27;20127;-66
2021/10/12 08:49:53;;;;;;;6.45;3.67;;;;;;;;;;5112580;27;20464;-67
2021/10/12 08:52:20;;;;;;;4.20;3.45;;;;;;;;;;5110083;27;20040;-67
2021/10/12 08:54:47;;;;;;;4.50;3.38;;;;;;;;;;5089111;28;20055;-66
2021/10/12 08:57:30;;;;;;;4.55;3.67;;;;;;;;;;5109220;27;20040;-66
2021/10/12 08:59:56;;;;;;;3.28;2.53;;;;;;;;;;5106593;27;20031;-65
2021/10/12 09:02:27;;;;;;;3.72;2.72;;;;;;;;;;5108583;27;20035;-65
2021/10/12 09:04:53;;;;;;;4.17;3.33;;;;;;;;;;5106539;27;20038;-66
2021/10/12 09:07:24;;;;;;;4.78;3.38;;;;;;;;;;5091480;28;20041;-66
2021/10/12 09:09:51;;;;;;;4.18;3.35;;;;;;;;;;5106235;27;20043;-66
2021/10/12 09:12:17;;;;;;;4.68;3.30;;;;;;;;;;5104871;27;20531;-66
2021/10/12 09:14:58;;;;;;;7.15;3.28;;;;;;;;;;5105790;27;20126;-66
2021/10/12 09:17:35;;;;;;;4.60;3.65;;;;;;;;;;5106533;27;20089;-66
2021/10/12 09:20:22;;;;;;;5.85;4.13;;;;;;;;;;5106675;27;20044;-67
2021/10/12 09:23:03;;;;;;;4.38;3.05;;;;;;;;;;5109150;27;20047;-65
2021/10/12 09:25:43;;;;;;;5.45;3.90;;;;;;;;;;5104941;27;20035;-66
2021/10/12 09:28:25;;;;;;;3.85;2.63;;;;;;;;;;5109419;27;20027;-66
2021/10/12 09:30:55;;;;;;;3.95;3.20;;;;;;;;;;5107214;27;20031;-66
2021/10/12 09:33:20;;;;;;;3.63;2.97;;;;;;;;;;5111330;27;20501;-66
2021/10/12 09:35:46;;;;;;;4.55;3.30;;;;;;;;;;5097848;27;20031;-64
2021/10/12 09:38:13;;;;;;;8.38;3.85;;;;;;;;;;5109866;27;20503;-66
2021/10/12 09:40:46;;;;;;;3.92;3.20;;;;;;;;;;5114118;27;20054;-65
2021/10/12 09:43:16;;;;;;;3.40;2.72;;;;;;;;;;5110695;27;20058;-64
2021/10/12 09:45:43;;;;;;;6.25;4.22;;;;;;;;;;5111138;27;20396;-65
2021/10/12 09:48:30;;;;;;;4.22;2.83;;;;;;;;;;5106770;27;20147;-65
2021/10/12 09:51:14;;;;;;;3.67;2.70;;;;;;;;;;5088020;28;20032;-66
2021/10/12 09:53:42;;;;;;;3.67;2.92;;;;;;;;;;5108435;27;20491;-66
2021/10/12 09:56:08;;;;;;;4.88;3.83;;;;;;;;;;5108605;27;20034;-66
2021/10/12 09:58:34;;;;;;;3.65;3.20;;;;;;;;;;5090292;27;20372;-66
2021/10/12 10:01:01;;;;;;;3.63;3.00;;;;;;;;;;5110956;27;20031;-66
2021/10/12 10:03:31;;;;;;;3.92;3.53;;;;;;;;;;5103259;27;20039;-66
2021/10/12 10:06:10;;;;;;;3.55;3.15;;;;;;;;;;5105966;27;20109;-66
2021/10/12 10:08:43;;;;;;;4.18;3.25;;;;;;;;;;5101582;27;20071;-66
2021/10/12 10:11:09;;;;;;;3.13;2.50;;;;;;;;;;5103078;27;20032;-66
2021/10/12 10:13:35;;;;;;;4.00;3.17;;;;;;;;;;5102966;27;20120;-68
2021/10/12 10:16:02;;;;;;;4.80;3.03;;;;;;;;;;5106744;27;20043;-67
2021/10/12 10:18:28;;;;;;;5.50;3.65;;;;;;;;;;5098035;27;20110;-68
2021/10/12 10:20:55;;;;;;;3.60;2.83;;;;;;;;;;5110214;27;20065;-66
2021/10/12 10:24:10;;;;;;;5.18;3.75;;;;;;;;;;5107094;27;20035;-67
2021/10/12 10:26:38;;;;;;;8.80;3.00;;;;;;;;;;5103806;27;20890;-67
2021/10/12 10:29:25;;;;;;;11.80;3.10;;;;;;;;;;5103321;27;20055;-67
2021/10/12 10:32:00;;;;;;;4.38;2.63;;;;;;;;;;5110881;27;20035;-65
2021/10/12 10:34:37;;;;;;;3.80;2.75;;;;;;;;;;5108849;27;20031;-65
2021/10/12 10:37:15;;;;;;;4.28;3.00;;;;;;;;;;5110799;27;20371;-65
2021/10/12 10:39:53;;;;;;;4.97;3.38;;;;;;;;;;5107392;27;20056;-65
2021/10/12 10:42:27;;;;;;;3.88;2.70;;;;;;;;;;5108524;27;20525;-66
2021/10/12 10:45:01;;;;;;;2.65;2.05;;;;;;;;;;5105176;27;20086;-65
2021/10/12 10:47:41;;;;;;;3.30;2.78;;;;;;;;;;5102757;27;20081;-65
2021/10/12 10:50:16;;;;;;;3.42;2.55;;;;;;;;;;5088198;28;20134;-64
2021/10/12 10:52:49;;;;;;;2.88;2.13;;;;;;;;;;5103122;27;20040;-64
2021/10/12 10:55:21;;;;;;;2.58;2.20;;;;;;;;;;5100538;27;20456;-65
2021/10/12 10:58:20;;;;;;;4.22;2.47;;;;;;;;;;5105567;27;20031;-65
2021/10/12 11:00:52;;;;;;;3.35;2.00;;;;;;;;;;5101303;28;20718;-65
2021/10/12 11:03:36;;;;;;;2.47;1.67;;;;;;;;;;5109517;27;20031;-64
2021/10/12 11:06:20;;;;;;;3.03;2.13;;;;;;;;;;5098007;28;20095;-64
2021/10/12 11:09:03;;;;;;;3.15;2.22;;;;;;;;;;5105251;27;20036;-65
2021/10/12 11:11:35;;;;;;;2.33;1.58;;;;;;;;;;5109808;27;20023;-65
2021/10/12 11:14:03;;;;;;;3.33;2.40;;;;;;;;;;5106725;27;20039;-64
2021/10/12 11:16:36;;;;;;;2.83;1.55;;;;;;;;;;5093666;27;20032;-65
2021/10/12 11:19:03;;;;;;;2.38;1.92;;;;;;;;;;5105293;27;20039;-65
2021/10/12 11:21:29;;;;;;;2.45;1.90;;;;;;;;;;5108287;27;20035;-65
2021/10/12 11:23:57;;;;;;;4.47;2.58;;;;;;;;;;5101142;27;20038;-64
2021/10/12 11:26:27;;;;;;;2.97;2.03;;;;;;;;;;5103512;27;20496;-64
2021/10/12 11:28:57;;;;;;;3.47;2.42;;;;;;;;;;5090775;28;20039;-65
2021/10/12 11:31:26;;;;;;;2.17;1.58;;;;;;;;;;5115333;27;20119;-65
2021/10/12 11:33:54;;;;;;;2.65;1.85;;;;;;;;;;5111769;27;20095;-65
2021/10/12 11:36:32;;;;;;;2.55;1.80;;;;;;;;;;5110391;27;20038;-65
2021/10/12 11:39:05;;;;;;;4.22;2.42;;;;;;;;;;5113202;27;20042;-65
2021/10/12 11:41:31;;;;;;;2.60;2.03;;;;;;;;;;5112620;27;20041;-64
2021/10/12 11:43:59;;;;;;;2.83;2.20;;;;;;;;;;5109263;27;20032;-64
2021/10/12 11:46:33;;;;;;;2.30;1.80;;;;;;;;;;5109296;28;20042;-63
2021/10/12 11:49:13;;;;;;;4.03;2.65;;;;;;;;;;5106829;27;20035;-65
2021/10/12 11:51:39;;;;;;;2.55;2.03;;;;;;;;;;5110280;28;20356;-63
2021/10/12 11:54:06;;;;;;;2.03;1.50;;;;;;;;;;5106782;28;20043;-64
2021/10/12 11:56:33;;;;;;;2.30;1.67;;;;;;;;;;5105865;28;20031;-64
2021/10/12 11:58:59;;;;;;;2.15;1.52;;;;;;;;;;5110022;28;20052;-64
2021/10/12 12:01:32;;;;;;;2.20;1.55;;;;;;;;;;5115804;28;20023;-64
2021/10/12 12:03:59;;;;;;;2.22;1.58;;;;;;;;;;5107865;28;20036;-64
2021/10/12 12:06:29;;;;;;;2.00;1.42;;;;;;;;;;5107367;28;20118;-63
2021/10/12 12:08:57;;;;;;;2.25;1.70;;;;;;;;;;5094500;28;20019;-63
2021/10/12 12:11:29;;;;;;;3.08;1.95;;;;;;;;;;5108816;28;20394;-63
2021/10/12 12:13:56;;;;;;;2.08;1.55;;;;;;;;;;5112633;28;20462;-62
2021/10/12 12:16:23;;;;;;;2.20;1.63;;;;;;;;;;5111833;28;20050;-63
2021/10/12 12:18:49;;;;;;;3.95;2.28;;;;;;;;;;5104235;28;20054;-62
2021/10/12 12:21:27;;;;;;;3.38;1.83;;;;;;;;;;5106191;28;20517;-61
2021/10/12 12:23:56;;;;;;;2.95;2.10;;;;;;;;;;5103519;28;20030;-61
2021/10/12 12:26:25;;;;;;;2.40;1.73;;;;;;;;;;5108339;28;20122;-61
2021/10/12 12:28:50;;;;;;;2.72;2.08;;;;;;;;;;5103548;28;20028;-61
2021/10/12 12:31:21;;;;;;;2.25;1.50;;;;;;;;;;5109705;28;20111;-61
2021/10/12 12:33:49;;;;;;;1.92;1.40;;;;;;;;;;5108335;28;20048;-61
2021/10/12 12:36:15;;;;;;;2.25;1.60;;;;;;;;;;5109657;28;20070;-62
2021/10/12 12:38:42;;;;;;;2.30;1.67;;;;;;;;;;5106874;28;20035;-61
2021/10/12 12:41:26;;;;;;;2.28;1.70;;;;;;;;;;5104859;28;20050;-63
2021/10/12 12:43:56;;;;;;;3.55;2.03;;;;;;;;;;5109560;28;20054;-62
2021/10/12 12:46:23;;;;;;;2.88;2.10;;;;;;;;;;5106300;28;20035;-62
2021/10/12 12:49:05;;;;;;;2.20;1.85;;;;;;;;;;5102394;28;20025;-62
2021/10/12 12:51:32;;;;;;;3.60;1.98;;;;;;;;;;5078875;28;20039;-63
2021/10/12 12:53:58;;;;;;;3.70;1.92;;;;;;;;;;5106205;28;20035;-62
2021/10/12 12:56:32;;;;;;;2.60;1.90;;;;;;;;;;5105695;28;20036;-63
2021/10/12 12:59:08;;;;;;;3.00;1.83;;;;;;;;;;5108756;27;20058;-63
2021/10/12 13:01:33;;;;;;;2.80;1.85;;;;;;;;;;5112998;27;20077;-63
2021/10/12 13:03:59;;;;;;;5.60;2.17;;;;;;;;;;5110123;27;20067;-64
2021/10/12 13:06:24;;;;;;;3.85;2.78;;;;;;;;;;5113802;27;20035;-65
2021/10/12 13:08:55;;;;;;;2.78;2.00;;;;;;;;;;5111853;27;20594;-65
2021/10/12 13:11:24;;;;;;;2.65;2.00;;;;;;;;;;5112918;27;20100;-64
2021/10/12 13:13:49;;;;;;;2.47;1.92;;;;;;;;;;5114283;27;20145;-65
2021/10/12 13:16:15;;;;;;;2.63;1.98;;;;;;;;;;5108976;27;20459;-64
2021/10/12 13:18:41;;;;;;;4.65;2.17;;;;;;;;;;5107306;27;20610;-66
2021/10/12 13:21:07;;;;;;;3.10;2.13;;;;;;;;;;5112816;27;20380;-66
2021/10/12 13:23:33;;;;;;;5.03;2.15;;;;;;;;;;5097245;27;20023;-66
2021/10/12 13:25:59;;;;;;;2.67;2.08;;;;;;;;;;5111281;27;20036;-67
2021/10/12 13:28:25;;;;;;;3.10;2.13;;;;;;;;;;5112796;27;20502;-66
2021/10/12 13:30:50;;;;;;;2.38;1.83;;;;;;;;;;5111137;27;20039;-66
2021/10/12 13:33:15;;;;;;;2.72;1.83;;;;;;;;;;5113705;27;20077;-65
2021/10/12 13:35:41;;;;;;;14.65;3.13;;;;;;;;;;5098232;28;20063;-67
2021/10/12 13:38:06;;;;;;;2.10;1.60;;;;;;;;;;5111669;27;20032;-66
2021/10/12 13:40:32;;;;;;;3.30;2.00;;;;;;;;;;5109595;27;20132;-66
2021/10/12 13:42:57;;;;;;;3.03;2.28;;;;;;;;;;5111997;27;20031;-67
2021/10/12 13:45:22;;;;;;;2.65;2.08;;;;;;;;;;5107471;27;20111;-67
2021/10/12 13:47:48;;;;;;;3.50;2.50;;;;;;;;;;5115220;27;20502;-66
2021/10/12 13:50:15;;;;;;;2.65;1.92;;;;;;;;;;5111623;27;20049;-67
2021/10/12 13:52:41;;;;;;;2.30;1.70;;;;;;;;;;5107494;27;20098;-67
2021/10/12 13:55:07;;;;;;;3.20;2.17;;;;;;;;;;5101722;27;20028;-67
2021/10/12 13:57:35;;;;;;;2.72;2.20;;;;;;;;;;5081363;27;20103;-68
2021/10/12 14:00:01;;;;;;;2.40;1.92;;;;;;;;;;5108372;27;20131;-68
2021/10/12 14:02:27;;;;;;;2.70;2.15;;;;;;;;;;5111252;27;20043;-68
2021/10/12 14:04:52;;;;;;;2.50;2.03;;;;;;;;;;5110995;27;20524;-66
2021/10/12 14:07:18;;;;;;;3.03;2.55;;;;;;;;;;5106082;27;20038;-67
2021/10/12 14:09:47;;;;;;;13.48;2.10;;;;;;;;;;5106325;27;20396;-66
2021/10/12 14:12:19;;;;;;;2.45;1.80;;;;;;;;;;5091072;27;20039;-70
2021/10/12 14:14:45;;;;;;;3.08;2.35;;;;;;;;;;5091884;28;20042;-69
2021/10/12 14:17:11;;;;;;;5.07;2.50;;;;;;;;;;5109084;27;20023;-70
2021/10/12 14:19:37;;;;;;;2.42;1.83;;;;;;;;;;5108860;27;20053;-69
2021/10/12 14:22:03;;;;;;;5.68;2.90;;;;;;;;;;5106982;27;20038;-69
2021/10/12 14:24:29;;;;;;;6.30;2.10;;;;;;;;;;5108479;27;20521;-68
2021/10/12 14:26:55;;;;;;;2.78;2.05;;;;;;;;;;5107113;27;20031;-69
2021/10/12 14:29:20;;;;;;;6.25;2.55;;;;;;;;;;5105390;27;20028;-68
2021/10/12 14:31:45;;;;;;;3.67;2.47;;;;;;;;;;5109436;27;20032;-69
2021/10/12 14:34:11;;;;;;;3.33;2.47;;;;;;;;;;5106564;27;20100;-69
2021/10/12 14:36:36;;;;;;;3.35;2.63;;;;;;;;;;5108053;27;20038;-68
2021/10/12 14:39:02;;;;;;;2.30;1.80;;;;;;;;;;5112337;27;20099;-66
2021/10/12 14:41:28;;;;;;;7.57;2.40;;;;;;;;;;5107379;27;20036;-68
2021/10/12 14:43:53;;;;;;;5.40;2.35;;;;;;;;;;5090822;28;20544;-68
2021/10/12 14:46:18;;;;;;;3.10;2.40;;;;;;;;;;5108032;27;20051;-69
2021/10/12 14:48:44;;;;;;;3.30;2.08;;;;;;;;;;5110786;27;20042;-68